createdAt,value
2019-04-25T00:00:51.404Z,94975.5
2019-04-25T00:01:53.611Z,94976.3
2019-04-25T00:02:56.044Z,94977.5
2019-04-25T00:03:58.472Z,94972.6
2019-04-25T00:05:03.789Z,94971.1
2019-04-25T00:06:06.219Z,94979
2019-04-25T00:07:08.378Z,94975
2019-04-25T00:08:12.056Z,94972.4
2019-04-25T00:09:14.482Z,94975.3
2019-04-25T00:10:16.653Z,94974.7
2019-04-25T00:11:18.802Z,94973.4
2019-04-25T00:12:22.696Z,94969.3
2019-04-25T00:13:25.120Z,94972.3
2019-04-25T00:14:27.545Z,94975.2
2019-04-25T00:15:29.430Z,94978.3
2019-04-25T00:16:32.343Z,94977.8
2019-04-25T00:17:34.505Z,94977.8
2019-04-25T00:18:36.941Z,94978.8
2019-04-25T00:19:44.322Z,94974.9
2019-04-25T00:20:47.523Z,94978.3
2019-04-25T00:21:51.662Z,94982.1
2019-04-25T00:22:54.606Z,94980.4
2019-04-25T00:23:56.488Z,94985
2019-04-25T00:24:58.911Z,94985.3
2019-04-25T00:26:02.769Z,94984.4
2019-04-25T00:27:05.195Z,94987.7
2019-04-25T00:28:07.347Z,94987.3
2019-04-25T00:29:09.493Z,94983.2
2019-04-25T00:30:12.499Z,94983.8
2019-04-25T00:31:14.645Z,94984
2019-04-25T00:32:17.073Z,94990.4
2019-04-25T00:33:19.224Z,94991.2
2019-04-25T00:34:23.260Z,94988.1
2019-04-25T00:35:25.669Z,94992.9
2019-04-25T00:36:27.821Z,94993.6
2019-04-25T00:37:30.253Z,94996.1
2019-04-25T00:38:33.989Z,94997.6
2019-04-25T00:39:36.430Z,94999.2
2019-04-25T00:40:38.872Z,95001.1
2019-04-25T00:42:48.258Z,95001.8
2019-04-25T00:43:53.523Z,95000.7
2019-04-25T00:44:55.679Z,95001.8
2019-04-25T00:45:58.095Z,94998.8
2019-04-25T00:47:02.188Z,95004.5
2019-04-25T00:48:05.600Z,95004.5
2019-04-25T00:49:07.759Z,95006.3
2019-04-25T00:50:09.897Z,95004.2
2019-04-25T00:51:13.635Z,95002.8
2019-04-25T00:52:16.058Z,95001.7
2019-04-25T00:53:18.213Z,95003.8
2019-04-25T00:54:22.488Z,95001.4
2019-04-25T00:56:29.801Z,94999.7
2019-04-25T00:57:33.541Z,94988.1
2019-04-25T00:58:35.975Z,94988.6
2019-04-25T00:59:38.136Z,94987.1
2019-04-25T01:00:43.277Z,94989.3
2019-04-25T01:01:49.524Z,94988.3
2019-04-25T01:02:56.419Z,94990.5
2019-04-25T01:03:58.581Z,94993
2019-04-25T01:05:02.831Z,94991.6
2019-04-25T01:06:05.368Z,94995.4
2019-04-25T01:07:07.243Z,94995.3
2019-04-25T01:08:09.673Z,94991.5
2019-04-25T01:09:13.406Z,94992.8
2019-04-25T01:10:15.545Z,94995.8
2019-04-25T01:11:17.962Z,94996.4
2019-04-25T01:12:22.056Z,94994.9
2019-04-25T01:13:23.912Z,94999.3
2019-04-25T01:14:26.343Z,94992
2019-04-25T01:15:28.473Z,94989.9
2019-04-25T01:16:32.345Z,94984
2019-04-25T01:17:34.486Z,94981.3
2019-04-25T01:18:38.620Z,94977.7
2019-04-25T01:19:41.042Z,94973.1
2019-04-25T01:20:45.991Z,94970.7
2019-04-25T01:21:50.111Z,94973.1
2019-04-25T01:23:58.053Z,94979.3
2019-04-25T01:25:00.485Z,94979.9
2019-04-25T01:26:04.330Z,94979
2019-04-25T01:27:06.854Z,94977
2019-04-25T01:28:09.292Z,94979.5
2019-04-25T01:29:11.444Z,94977.8
2019-04-25T01:30:15.604Z,94978
2019-04-25T01:31:17.775Z,94978.1
2019-04-25T01:32:20.189Z,94977
2019-04-25T01:33:24.285Z,94979.1
2019-04-25T01:34:27.032Z,94973.4
2019-04-25T01:35:29.457Z,94972
2019-04-25T01:36:33.694Z,94977.8
2019-04-25T01:37:35.562Z,94974.5
2019-04-25T01:38:37.993Z,94972.5
2019-04-25T01:39:40.426Z,94968.4
2019-04-25T01:40:44.801Z,94967.4
2019-04-25T01:41:49.632Z,94970.9
2019-04-25T01:42:54.760Z,94968.3
2019-04-25T01:45:04.506Z,94969.6
2019-04-25T01:46:06.927Z,94970
2019-04-25T01:47:09.355Z,94966.3
2019-04-25T01:48:13.203Z,94968.8
2019-04-25T01:49:15.779Z,94973.8
2019-04-25T01:50:18.203Z,94978.5
2019-04-25T01:51:20.630Z,94977.8
2019-04-25T01:52:24.661Z,94974.9
2019-04-25T01:53:27.078Z,94971.1
2019-04-25T01:54:29.504Z,94971.6
2019-04-25T01:55:33.361Z,94971.9
2019-04-25T01:56:35.680Z,94971.5
2019-04-25T01:57:37.832Z,94966.5
2019-04-25T01:58:39.725Z,94967.7
2019-04-25T01:59:43.646Z,94967.2
2019-04-25T02:00:46.489Z,94964.7
2019-04-25T02:01:48.358Z,94966.6
2019-04-25T02:03:59.038Z,94966.7
2019-04-25T02:05:01.732Z,94968.2
2019-04-25T02:06:08.631Z,94971.1
2019-04-25T02:07:11.059Z,94968.7
2019-04-25T02:08:15.233Z,94967.7
2019-04-25T02:09:17.657Z,94968.4
2019-04-25T02:10:20.087Z,94972.8
2019-04-25T02:11:21.954Z,94971.7
2019-04-25T02:12:25.694Z,94977
2019-04-25T02:13:28.126Z,94975.5
2019-04-25T02:14:30.018Z,94975.3
2019-04-25T02:15:34.379Z,94973.8
2019-04-25T02:16:36.909Z,94978
2019-04-25T02:17:39.391Z,94975.4
2019-04-25T02:18:41.527Z,94974.9
2019-04-25T02:19:45.719Z,94973.1
2019-04-25T02:20:47.867Z,94967.3
2019-04-25T02:21:50.009Z,94966.1
2019-04-25T02:24:00.191Z,94966.4
2019-04-25T02:27:14.835Z,94976.3
2019-04-25T02:28:17.423Z,94971.9
2019-04-25T02:29:19.847Z,94971
2019-04-25T02:30:22.000Z,94969.8
2019-04-25T02:31:28.899Z,94974.9
2019-04-25T02:32:31.058Z,94970.6
2019-04-25T02:33:37.959Z,94980.4
2019-04-25T02:34:40.386Z,94980.1
2019-04-25T02:36:48.310Z,94973.5
2019-04-25T02:37:50.469Z,94973.8
2019-04-25T02:42:10.181Z,94978.4
2019-04-25T02:44:18.160Z,94982
2019-04-25T02:45:20.340Z,94974.6
2019-04-25T02:47:28.711Z,94974.3
2019-04-25T02:48:31.138Z,94976.7
2019-04-25T02:51:48.485Z,94976.7
2019-04-25T02:52:50.920Z,94978.5
2019-04-25T02:53:59.481Z,94976.3
2019-04-25T02:57:16.051Z,94968
2019-04-25T02:58:18.519Z,94967.4
2019-04-25T02:59:20.950Z,94960.2
2019-04-25T03:01:28.823Z,94956.6
2019-04-25T03:02:31.251Z,94958
2019-04-25T03:04:38.679Z,94964.6
2019-04-25T03:05:41.118Z,94965.9
2019-04-25T03:07:48.043Z,94969.2
2019-04-25T03:08:50.237Z,94967
2019-04-25T03:09:54.955Z,94968.9
2019-04-25T03:14:16.122Z,94963.5
2019-04-25T03:15:18.553Z,94964.1
2019-04-25T03:16:20.991Z,94964.1
2019-04-25T03:18:28.144Z,94968.4
2019-04-25T03:19:29.994Z,94969.8
2019-04-25T03:20:32.138Z,94972.4
2019-04-25T03:21:39.021Z,94963.3
2019-04-25T03:22:41.461Z,94957.9
2019-04-25T03:23:48.357Z,94960.2
2019-04-25T03:24:50.524Z,94959
2019-04-25T03:25:53.827Z,94960.9
2019-04-25T03:26:56.184Z,94962.6
2019-04-25T03:28:01.140Z,94963.3
2019-04-25T03:34:29.400Z,94971.1
2019-04-25T03:35:33.208Z,94969
2019-04-25T03:36:35.416Z,94968.9
2019-04-25T03:37:37.573Z,94968.1
2019-04-25T03:38:40.011Z,94960
2019-04-25T03:39:44.136Z,94961
2019-04-25T03:40:46.551Z,94968.7
2019-04-25T03:41:48.968Z,94966.9
2019-04-25T03:42:51.507Z,94964.6
2019-04-25T03:43:55.578Z,94961.4
2019-04-25T03:44:58.043Z,94963.6
2019-04-25T03:46:00.259Z,94968.2
2019-04-25T03:48:11.697Z,94969.5
2019-04-25T03:49:15.602Z,94968.2
2019-04-25T03:50:17.755Z,94969.4
2019-04-25T03:51:20.180Z,94969.8
2019-04-25T03:52:23.746Z,94971.1
2019-04-25T03:53:25.976Z,94977.3
2019-04-25T03:54:28.117Z,94975.5
2019-04-25T03:55:30.278Z,94974.2
2019-04-25T03:56:33.822Z,94974.4
2019-04-25T03:57:36.240Z,94976.7
2019-04-25T03:58:38.655Z,94977.5
2019-04-25T03:59:41.082Z,94970.6
2019-04-25T04:00:45.684Z,94969.9
2019-04-25T04:01:48.094Z,94971.8
2019-04-25T04:02:49.965Z,94973
2019-04-25T04:03:53.746Z,94970.5
2019-04-25T04:04:55.989Z,94968.5
2019-04-25T04:05:58.169Z,94968.6
2019-04-25T04:07:00.594Z,94970.9
2019-04-25T04:09:09.811Z,94974.1
2019-04-25T04:11:17.724Z,94978
2019-04-25T04:12:19.859Z,94976.1
2019-04-25T04:13:22.008Z,94976.4
2019-04-25T04:14:26.270Z,94976.1
2019-04-25T04:15:28.700Z,94973.1
2019-04-25T04:16:31.124Z,94973.1
2019-04-25T04:17:35.285Z,94972.8
2019-04-25T04:18:37.426Z,94974.2
2019-04-25T04:19:39.839Z,94972.9
2019-04-25T04:20:41.706Z,94976.9
2019-04-25T04:21:44.930Z,94972.8
2019-04-25T04:22:47.078Z,94974.5
2019-04-25T04:23:49.216Z,94979.1
2019-04-25T04:24:51.647Z,94976.9
2019-04-25T04:25:55.832Z,94978.1
2019-04-25T04:28:04.461Z,94976.6
2019-04-25T04:29:08.776Z,94971
2019-04-25T04:30:14.083Z,94973.1
2019-04-25T04:31:17.782Z,94977.8
2019-04-25T04:32:20.209Z,94976.7
2019-04-25T04:34:27.604Z,94985
2019-04-25T04:35:29.492Z,94981
2019-04-25T04:36:31.923Z,94981.7
2019-04-25T04:37:35.559Z,94982.7
2019-04-25T04:38:38.050Z,94984.5
2019-04-25T04:39:40.499Z,94981.7
2019-04-25T04:40:44.602Z,94976.5
2019-04-25T04:41:47.028Z,94976.3
2019-04-25T04:42:49.188Z,94975.4
2019-04-25T04:43:51.611Z,94980.7
2019-04-25T04:44:54.992Z,94979.1
2019-04-25T04:45:57.414Z,94978.4
2019-04-25T04:46:59.563Z,94979.1
2019-04-25T04:48:03.212Z,94980.4
2019-04-25T04:49:05.718Z,94980
2019-04-25T04:50:10.404Z,94976.1
2019-04-25T04:52:19.346Z,94977.3
2019-04-25T04:53:23.439Z,94975.5
2019-04-25T04:54:25.916Z,94976.8
2019-04-25T04:55:28.337Z,94978.1
2019-04-25T04:56:30.762Z,94978.9
2019-04-25T04:58:38.170Z,94987.2
2019-04-25T04:59:40.314Z,94988.4
2019-04-25T05:00:44.299Z,94991.9
2019-04-25T05:01:46.718Z,94985.8
2019-04-25T05:02:48.583Z,94983.3
2019-04-25T05:03:50.716Z,94982.6
2019-04-25T05:04:54.732Z,94979.6
2019-04-25T05:05:56.884Z,94984.7
2019-04-25T05:06:59.022Z,94984.5
2019-04-25T05:08:01.173Z,94986.6
2019-04-25T05:09:04.644Z,94992
2019-04-25T05:10:06.938Z,94993.7
2019-04-25T05:11:09.433Z,94994.3
2019-04-25T05:12:15.189Z,94997.1
2019-04-25T05:13:20.310Z,94994.8
2019-04-25T05:14:21.937Z,94997.2
2019-04-25T05:15:28.291Z,94998.2
2019-04-25T05:16:30.712Z,95000
2019-04-25T05:17:35.158Z,95002.7
2019-04-25T05:19:43.277Z,94995.8
2019-04-25T05:20:45.817Z,94998.5
2019-04-25T05:21:47.672Z,94999.7
2019-04-25T05:22:49.812Z,95002
2019-04-25T05:23:51.972Z,95000.2
2019-04-25T05:24:56.213Z,95003.8
2019-04-25T05:25:58.386Z,94999.7
2019-04-25T05:27:00.839Z,95000.5
2019-04-25T05:29:08.402Z,95001.7
2019-04-25T05:30:10.609Z,95000.1
2019-04-25T05:32:20.194Z,94992.7
2019-04-25T05:33:26.543Z,94990.7
2019-04-25T05:34:28.712Z,94994.5
2019-04-25T05:35:31.121Z,94999.9
2019-04-25T05:36:34.691Z,95001.8
2019-04-25T05:37:37.114Z,95005.4
2019-04-25T05:38:39.550Z,95001.3
2019-04-25T05:39:43.163Z,95005.4
2019-04-25T05:40:45.832Z,95004.3
2019-04-25T05:41:48.263Z,95003.6
2019-04-25T05:42:50.681Z,94998.9
2019-04-25T05:43:54.527Z,94994.9
2019-04-25T05:44:56.432Z,94994.7
2019-04-25T05:45:58.569Z,94992.5
2019-04-25T05:47:00.986Z,94989.1
2019-04-25T05:49:08.796Z,94991.6
2019-04-25T05:50:11.220Z,94992.2
2019-04-25T05:51:17.314Z,94996.3
2019-04-25T05:52:20.350Z,94997.5
2019-04-25T05:53:26.780Z,94999.7
2019-04-25T05:54:28.940Z,94997.9
2019-04-25T05:55:31.365Z,94998.8
2019-04-25T05:56:35.272Z,94998.8
2019-04-25T05:58:44.400Z,94994
2019-04-25T05:59:46.567Z,94994.7
2019-04-25T06:00:48.995Z,94996.3
2019-04-25T06:01:51.174Z,94995.4
2019-04-25T06:02:54.842Z,94995.4
2019-04-25T06:03:57.269Z,94995.4
2019-04-25T06:04:59.727Z,94993.4
2019-04-25T06:06:02.945Z,94991.2
2019-04-25T06:07:07.210Z,94995
2019-04-25T06:08:08.822Z,94994.5
2019-04-25T06:09:10.996Z,94999.9
2019-04-25T06:10:15.328Z,94995.6
2019-04-25T06:11:20.102Z,94997.5
2019-04-25T06:13:29.928Z,94992.4
2019-04-25T06:14:33.828Z,94992.7
2019-04-25T06:15:35.982Z,94989.7
2019-04-25T06:16:37.871Z,94989.1
2019-04-25T06:17:40.292Z,94988.5
2019-04-25T06:18:43.926Z,94990.8
2019-04-25T06:19:46.453Z,94991.7
2019-04-25T06:20:48.875Z,94988.6
2019-04-25T06:21:51.030Z,94990.3
2019-04-25T06:22:54.894Z,94993.7
2019-04-25T06:23:56.750Z,94993.4
2019-04-25T06:24:59.180Z,94995.3
2019-04-25T06:27:06.775Z,94991.8
2019-04-25T06:28:09.198Z,94991.3
2019-04-25T06:29:11.362Z,94997.4
2019-04-25T06:30:17.139Z,94993.6
2019-04-25T06:32:28.908Z,94990.8
2019-04-25T06:33:33.908Z,94983.6
2019-04-25T06:34:37.916Z,94987
2019-04-25T06:35:40.333Z,94983
2019-04-25T06:36:44.502Z,94981.9
2019-04-25T06:37:46.947Z,94985.4
2019-04-25T06:38:49.370Z,94985.5
2019-04-25T06:39:51.546Z,94985
2019-04-25T06:40:55.345Z,94987.3
2019-04-25T06:41:57.492Z,94988.1
2019-04-25T06:42:59.634Z,94986.3
2019-04-25T06:44:01.772Z,94985
2019-04-25T06:45:05.984Z,94983.2
2019-04-25T06:46:08.123Z,94983.9
2019-04-25T06:47:10.534Z,94980.9
2019-04-25T06:48:14.451Z,94982.7
2019-04-25T06:49:16.057Z,94989.7
2019-04-25T06:50:18.212Z,94986.3
2019-04-25T06:51:20.371Z,94986.7
2019-04-25T06:53:29.062Z,94981.6
2019-04-25T06:54:33.484Z,94980.3
2019-04-25T06:55:37.027Z,94976.6
2019-04-25T06:56:39.453Z,94980
2019-04-25T06:57:41.880Z,94979.4
2019-04-25T06:58:46.080Z,94982.7
2019-04-25T06:59:48.508Z,94977.8
2019-04-25T07:01:57.729Z,94981.1
2019-04-25T07:03:00.154Z,94976.4
2019-04-25T07:04:03.903Z,94976.4
2019-04-25T07:05:06.471Z,94976.9
2019-04-25T07:06:08.070Z,94973.4
2019-04-25T07:08:15.462Z,94975.3
2019-04-25T07:09:17.892Z,94972.5
2019-04-25T07:10:20.316Z,94970.4
2019-04-25T07:14:38.654Z,94970.6
2019-04-25T07:15:41.105Z,94971.5
2019-04-25T07:16:44.828Z,94971.8
2019-04-25T07:17:47.481Z,94966.4
2019-04-25T07:18:49.625Z,94966.2
2019-04-25T07:19:51.777Z,94969.1
2019-04-25T07:20:56.376Z,94968.6
2019-04-25T07:21:58.379Z,94967.5
2019-04-25T07:23:00.601Z,94967.6
2019-04-25T07:24:04.618Z,94968.2
2019-04-25T07:25:07.115Z,94964.9
2019-04-25T07:26:09.322Z,94968.3
2019-04-25T07:27:11.267Z,94966.9
2019-04-25T07:29:18.130Z,94959.7
2019-04-25T07:31:27.364Z,94960.3
2019-04-25T07:33:36.892Z,94958.5
2019-04-25T07:34:39.316Z,94955.5
2019-04-25T07:35:41.482Z,94958.4
2019-04-25T07:36:47.063Z,94956.5
2019-04-25T07:37:49.484Z,94957.3
2019-04-25T07:39:56.878Z,94956
2019-04-25T07:40:58.763Z,94956
2019-04-25T07:42:01.207Z,94958.2
2019-04-25T07:43:05.871Z,94959.5
2019-04-25T07:44:08.024Z,94951.3
2019-04-25T07:45:10.328Z,94952.3
2019-04-25T07:46:14.449Z,94953
2019-04-25T07:47:17.479Z,94956.9
2019-04-25T07:48:22.560Z,94949.3
2019-04-25T07:49:28.953Z,94954.7
2019-04-25T07:50:36.580Z,94949.3
2019-04-25T07:51:38.842Z,94951.2
2019-04-25T07:52:41.274Z,94952.8
2019-04-25T07:53:45.124Z,94945.5
2019-04-25T07:54:47.003Z,94949.2
2019-04-25T07:55:49.179Z,94948.7
2019-04-25T07:56:51.324Z,94944.4
2019-04-25T07:57:57.680Z,94950.3
2019-04-25T07:58:59.862Z,94943.8
2019-04-25T08:01:08.242Z,94938.9
2019-04-25T08:02:10.398Z,94937.4
2019-04-25T08:03:15.397Z,94936.9
2019-04-25T08:04:17.920Z,94937.5
2019-04-25T08:05:20.360Z,94939.4
2019-04-25T08:06:25.239Z,94937.8
2019-04-25T08:07:29.835Z,94940.2
2019-04-25T08:09:39.472Z,94936.9
2019-04-25T08:10:43.393Z,94936.6
2019-04-25T08:11:47.065Z,94932.1
2019-04-25T08:12:49.489Z,94937.4
2019-04-25T08:13:53.829Z,94937.1
2019-04-25T08:14:55.979Z,94932.6
2019-04-25T08:15:58.414Z,94938.9
2019-04-25T08:17:01.041Z,94933.5
2019-04-25T08:18:05.108Z,94935.7
2019-04-25T08:19:07.244Z,94936.3
2019-04-25T08:20:09.684Z,94933.4
2019-04-25T08:21:12.132Z,94934.3
2019-04-25T08:22:15.107Z,94932.6
2019-04-25T08:23:17.274Z,94930.3
2019-04-25T08:24:19.697Z,94927.3
2019-04-25T08:25:23.934Z,94933.5
2019-04-25T08:26:26.082Z,94934.2
2019-04-25T08:27:28.253Z,94932.1
2019-04-25T08:30:44.676Z,94928.7
2019-04-25T08:31:46.578Z,94928.2
2019-04-25T08:32:49.022Z,94930.4
2019-04-25T08:33:51.191Z,94926.4
2019-04-25T08:34:55.713Z,94931.2
2019-04-25T08:38:11.142Z,94926.3
2019-04-25T08:39:15.438Z,94922.8
2019-04-25T08:40:17.593Z,94924.2
2019-04-25T08:42:25.429Z,94921.7
2019-04-25T08:43:27.571Z,94927.2
2019-04-25T08:44:29.717Z,94920.8
2019-04-25T08:46:41.537Z,94921.2
2019-04-25T08:47:45.824Z,94919.2
2019-04-25T08:48:48.244Z,94921
2019-04-25T08:49:51.055Z,94922.5
2019-04-25T08:50:55.088Z,94920.3
2019-04-25T08:51:57.513Z,94921
2019-04-25T08:52:59.934Z,94915.7
2019-04-25T08:54:04.289Z,94910.4
2019-04-25T08:55:06.443Z,94914.6
2019-04-25T08:56:08.885Z,94907.1
2019-04-25T08:57:10.752Z,94912.5
2019-04-25T08:58:14.732Z,94911.5
2019-04-25T08:59:17.166Z,94915.3
2019-04-25T09:00:19.593Z,94907.4
2019-04-25T09:01:23.477Z,94908
2019-04-25T09:02:25.738Z,94905.4
2019-04-25T09:03:27.898Z,94904.2
2019-04-25T09:04:30.321Z,94900.8
2019-04-25T09:05:40.237Z,94897.7
2019-04-25T09:06:45.307Z,94896.7
2019-04-25T09:07:47.731Z,94899.8
2019-04-25T09:08:49.900Z,94898.8
2019-04-25T09:09:53.942Z,94899
2019-04-25T09:10:56.081Z,94901.5
2019-04-25T09:11:58.520Z,94901.1
2019-04-25T09:13:00.957Z,94897.7
2019-04-25T09:14:05.107Z,94897.5
2019-04-25T09:15:07.539Z,94904.5
2019-04-25T09:16:09.981Z,94903.7
2019-04-25T09:17:11.865Z,94899.8
2019-04-25T09:18:15.323Z,94908.6
2019-04-25T09:19:17.478Z,94903.5
2019-04-25T09:20:19.631Z,94912.1
2019-04-25T09:21:23.602Z,94911.5
2019-04-25T09:22:25.941Z,94903.7
2019-04-25T09:23:28.382Z,94899.5
2019-04-25T09:24:30.534Z,94896
2019-04-25T09:26:40.576Z,94902.3
2019-04-25T09:27:47.559Z,94896.2
2019-04-25T09:28:49.713Z,94894.9
2019-04-25T09:29:52.126Z,94893.5
2019-04-25T09:30:56.193Z,94898.4
2019-04-25T09:31:58.348Z,94895.3
2019-04-25T09:33:00.771Z,94893.7
2019-04-25T09:34:04.594Z,94890
2019-04-25T09:35:06.719Z,94900.9
2019-04-25T09:36:09.147Z,94898.4
2019-04-25T09:37:11.572Z,94899.7
2019-04-25T09:38:14.791Z,94898.9
2019-04-25T09:39:17.215Z,94900.1
2019-04-25T09:40:19.355Z,94892.8
2019-04-25T09:41:23.502Z,94894.3
2019-04-25T09:42:25.833Z,94893.9
2019-04-25T09:43:27.971Z,94892.7
2019-04-25T09:44:29.853Z,94891.8
2019-04-25T09:45:33.953Z,94889.4
2019-04-25T09:46:39.506Z,94890.6
2019-04-25T09:47:46.055Z,94893.4
2019-04-25T09:48:48.364Z,94894.1
2019-04-25T09:49:50.807Z,94892.6
2019-04-25T09:50:54.410Z,94890.5
2019-04-25T09:51:56.833Z,94893
2019-04-25T09:52:59.000Z,94893.5
2019-04-25T09:54:01.161Z,94889.3
2019-04-25T09:55:05.441Z,94888
2019-04-25T09:56:07.603Z,94885.8
2019-04-25T09:57:10.018Z,94886.2
2019-04-25T09:58:13.570Z,94882.1
2019-04-25T10:00:23.713Z,94883.7
2019-04-25T10:01:25.866Z,94880.5
2019-04-25T10:02:28.008Z,94878.2
2019-04-25T10:03:30.432Z,94877.7
2019-04-25T10:05:39.142Z,94876.7
2019-04-25T10:07:50.390Z,94875.3
2019-04-25T10:08:54.240Z,94875.4
2019-04-25T10:09:57.485Z,94873.7
2019-04-25T10:10:59.925Z,94871.1
2019-04-25T10:12:02.079Z,94874.5
2019-04-25T10:14:09.486Z,94872
2019-04-25T10:15:11.625Z,94865.3
2019-04-25T10:16:13.780Z,94861
2019-04-25T10:17:16.216Z,94860
2019-04-25T10:18:18.080Z,94863.3
2019-04-25T10:19:20.524Z,94862.5
2019-04-25T10:20:24.304Z,94866.3
2019-04-25T10:21:26.455Z,94867.7
2019-04-25T10:22:28.883Z,94865.7
2019-04-25T10:23:31.037Z,94864.8
2019-04-25T10:24:33.203Z,94866.7
2019-04-25T10:25:35.619Z,94865.6
2019-04-25T10:26:41.588Z,94867.1
2019-04-25T10:28:49.577Z,94861.3
2019-04-25T10:30:57.971Z,94854.5
2019-04-25T10:32:00.399Z,94850.7
2019-04-25T10:33:04.543Z,94841.8
2019-04-25T10:34:06.965Z,94841.8
2019-04-25T10:35:09.388Z,94843.2
2019-04-25T10:36:11.814Z,94841.5
2019-04-25T10:37:15.319Z,94845.7
2019-04-25T10:38:17.208Z,94842.3
2019-04-25T10:39:19.426Z,94843
2019-04-25T10:40:21.328Z,94847.8
2019-04-25T10:41:27.961Z,94841.1
2019-04-25T10:42:30.402Z,94844.9
2019-04-25T10:43:34.686Z,94844.4
2019-04-25T10:44:37.121Z,94848.9
2019-04-25T10:45:42.268Z,94838.5
2019-04-25T10:46:49.655Z,94841.1
2019-04-25T10:47:53.258Z,94841.6
2019-04-25T10:48:58.503Z,94840.2
2019-04-25T10:50:00.705Z,94842.8
2019-04-25T10:51:05.172Z,94835.1
2019-04-25T10:52:07.598Z,94833.1
2019-04-25T10:53:10.020Z,94835.4
2019-04-25T10:54:14.340Z,94836.1
2019-04-25T10:55:16.993Z,94837.1
2019-04-25T10:56:19.414Z,94839.7
2019-04-25T10:57:21.831Z,94841.1
2019-04-25T10:58:24.297Z,94849.6
2019-04-25T10:59:26.721Z,94844.4
2019-04-25T11:00:28.857Z,94840.5
2019-04-25T11:01:31.281Z,94838.1
2019-04-25T11:02:35.431Z,94835.5
2019-04-25T11:03:37.863Z,94834.3
2019-04-25T11:05:49.816Z,94840
2019-04-25T11:06:53.233Z,94842.7
2019-04-25T11:07:57.123Z,94836.9
2019-04-25T11:08:59.023Z,94837.4
2019-04-25T11:10:01.184Z,94839.5
2019-04-25T11:11:05.547Z,94833.4
2019-04-25T11:12:07.445Z,94834.3
2019-04-25T11:13:09.599Z,94833.8
2019-04-25T11:14:13.424Z,94830
2019-04-25T11:15:15.909Z,94833
2019-04-25T11:16:18.334Z,94833.2
2019-04-25T11:17:20.470Z,94832.2
2019-04-25T11:18:24.373Z,94830
2019-04-25T11:19:26.563Z,94826.3
2019-04-25T11:20:28.991Z,94826
2019-04-25T11:21:33.135Z,94821.9
2019-04-25T11:22:35.764Z,94822
2019-04-25T11:23:38.179Z,94820
2019-04-25T11:24:41.504Z,94819.6
2019-04-25T11:25:48.253Z,94822.6
2019-04-25T11:27:58.807Z,94827.1
2019-04-25T11:29:00.403Z,94820.5
2019-04-25T11:31:07.828Z,94817.4
2019-04-25T11:32:10.241Z,94817.4
2019-04-25T11:33:14.166Z,94814.8
2019-04-25T11:34:17.824Z,94805.9
2019-04-25T11:35:19.421Z,94802.4
2019-04-25T11:36:21.871Z,94801.9
2019-04-25T11:37:25.403Z,94798.6
2019-04-25T11:38:27.011Z,94800
2019-04-25T11:39:29.446Z,94799.2
2019-04-25T11:40:31.862Z,94803.2
2019-04-25T11:41:35.622Z,94802.1
2019-04-25T11:42:37.763Z,94799.3
2019-04-25T11:43:40.195Z,94799.8
2019-04-25T11:45:49.739Z,94804.2
2019-04-25T11:46:51.594Z,94808.4
2019-04-25T11:47:56.272Z,94823.8
2019-04-25T11:48:58.446Z,94804
2019-04-25T11:50:00.872Z,94805.8
2019-04-25T11:51:05.071Z,94808
2019-04-25T11:52:07.509Z,94815.3
2019-04-25T11:53:09.653Z,94814.2
2019-04-25T11:54:13.749Z,94802.9
2019-04-25T11:55:16.344Z,94809.5
2019-04-25T11:56:18.777Z,94811.6
2019-04-25T11:57:21.200Z,94810.3
2019-04-25T11:58:25.009Z,94814.8
2019-04-25T11:59:27.153Z,94816.7
2019-04-25T12:00:29.323Z,94818.1
2019-04-25T12:01:33.440Z,94809.1
2019-04-25T12:02:35.751Z,94816.3
2019-04-25T12:03:37.893Z,94813.8
2019-04-25T12:04:40.021Z,94817.8
2019-04-25T12:06:48.796Z,94816.1
2019-04-25T12:07:51.469Z,94805
2019-04-25T12:08:57.411Z,94801.5
2019-04-25T12:09:59.863Z,94811.2
2019-04-25T12:11:01.863Z,94808.7
2019-04-25T12:13:09.367Z,94810.8
2019-04-25T12:14:11.525Z,94814.7
2019-04-25T12:16:18.397Z,94818.3
2019-04-25T12:17:20.823Z,94813.2
2019-04-25T12:18:22.722Z,94825.8
2019-04-25T12:20:30.135Z,94821.5
2019-04-25T12:21:33.722Z,94824.4
2019-04-25T12:22:36.431Z,94829.6
2019-04-25T12:23:38.859Z,94818.4
2019-04-25T12:24:41.045Z,94822
2019-04-25T12:26:51.147Z,94816.2
2019-04-25T12:28:58.552Z,94820.6
2019-04-25T12:30:01.011Z,94819.3
2019-04-25T12:31:05.288Z,94824.9
2019-04-25T12:32:07.456Z,94814.4
2019-04-25T12:34:15.696Z,94821.1
2019-04-25T12:35:17.853Z,94816
2019-04-25T12:36:19.752Z,94818.3
2019-04-25T12:38:28.118Z,94816.3
2019-04-25T12:39:30.541Z,94819.1
2019-04-25T12:40:34.803Z,94818.9
2019-04-25T12:41:37.225Z,94818.6
2019-04-25T12:42:39.656Z,94817.7
2019-04-25T12:43:41.792Z,94821.5
2019-04-25T12:44:49.688Z,94822.9
2019-04-25T12:45:53.833Z,94828.6
2019-04-25T12:46:57.859Z,94818
2019-04-25T12:48:00.559Z,94817
2019-04-25T12:49:02.718Z,94813.6
2019-04-25T12:50:05.258Z,94806.6
2019-04-25T12:51:07.131Z,94804.5
2019-04-25T12:52:09.314Z,94810.2
2019-04-25T12:53:11.469Z,94811.6
2019-04-25T12:54:15.269Z,94806.9
2019-04-25T12:55:17.697Z,94804.6
2019-04-25T12:56:24.448Z,94802.2
2019-04-25T12:57:28.245Z,94806.1
2019-04-25T12:58:30.393Z,94802.2
2019-04-25T12:59:32.819Z,94810.3
2019-04-25T13:01:41.187Z,94800
2019-04-25T13:02:46.212Z,94800.2
2019-04-25T13:03:49.331Z,94802.6
2019-04-25T13:05:59.111Z,94809.5
2019-04-25T13:07:01.265Z,94803.7
2019-04-25T13:09:08.676Z,94804.3
2019-04-25T13:10:10.819Z,94802.3
2019-04-25T13:11:14.626Z,94804.2
2019-04-25T13:12:18.010Z,94803.8
2019-04-25T13:13:21.085Z,94803.1
2019-04-25T13:14:26.269Z,94794.3
2019-04-25T13:15:29.783Z,94797.4
2019-04-25T13:16:31.666Z,94798.4
2019-04-25T13:17:35.201Z,94793.9
2019-04-25T13:18:37.621Z,94795.4
2019-04-25T13:19:39.773Z,94794.6
2019-04-25T13:20:42.209Z,94794.7
2019-04-25T13:21:44.535Z,94794.1
2019-04-25T13:22:46.677Z,94798.9
2019-04-25T13:23:48.271Z,94792.3
2019-04-25T13:24:50.433Z,94794.5
2019-04-25T13:25:55.793Z,94794.4
2019-04-25T13:27:01.079Z,94793.5
2019-04-25T13:29:08.982Z,94792
2019-04-25T13:30:11.095Z,94790.9
2019-04-25T13:32:18.209Z,94790.3
2019-04-25T13:33:20.639Z,94792
2019-04-25T13:35:27.754Z,94797.6
2019-04-25T13:36:29.909Z,94795.3
2019-04-25T13:37:32.077Z,94794.9
2019-04-25T13:38:36.091Z,94793.4
2019-04-25T13:39:38.520Z,94801.9
2019-04-25T13:40:40.692Z,94795.3
2019-04-25T13:41:45.814Z,94793.6
2019-04-25T13:42:47.981Z,94796.4
2019-04-25T13:43:50.141Z,94791.7
2019-04-25T13:44:52.314Z,94793.5
2019-04-25T13:45:56.255Z,94793.9
2019-04-25T13:46:58.417Z,94788.5
2019-04-25T13:48:00.853Z,94787.1
2019-04-25T13:49:04.942Z,94780.8
2019-04-25T13:50:07.105Z,94778.7
2019-04-25T13:51:09.533Z,94781.6
2019-04-25T13:52:11.121Z,94782.1
2019-04-25T13:53:14.444Z,94779.3
2019-04-25T13:54:16.619Z,94777.8
2019-04-25T13:55:18.226Z,94773.8
2019-04-25T13:56:20.672Z,94786.8
2019-04-25T13:57:28.349Z,94776.4
2019-04-25T13:58:34.777Z,94777.9
2019-04-25T13:59:37.224Z,94776.3
2019-04-25T14:00:39.655Z,94772.2
2019-04-25T14:01:41.813Z,94777.6
2019-04-25T14:02:46.115Z,94772.1
2019-04-25T14:03:48.654Z,94776.9
2019-04-25T14:04:51.163Z,94774.5
2019-04-25T14:05:55.399Z,94770.1
2019-04-25T14:06:57.604Z,94772.9
2019-04-25T14:08:00.045Z,94776.6
2019-04-25T14:09:04.186Z,94776.1
2019-04-25T14:10:06.623Z,94774.2
2019-04-25T14:11:08.765Z,94774.2
2019-04-25T14:12:11.195Z,94777.1
2019-04-25T14:13:14.945Z,94775.5
2019-04-25T14:14:17.119Z,94773.9
2019-04-25T14:15:19.002Z,94773.2
2019-04-25T14:17:28.535Z,94767.5
2019-04-25T14:18:31.990Z,94764.1
2019-04-25T14:19:37.124Z,94766.5
2019-04-25T14:20:39.563Z,94770.3
2019-04-25T14:21:43.242Z,94769.3
2019-04-25T14:22:46.909Z,94766
2019-04-25T14:23:49.337Z,94765.8
2019-04-25T14:24:51.214Z,94771.6